sensor_id;sensor_type;location;lat;lon;timestamp;P1;durP1;ratioP1;P2;durP2;ratioP2
42840;SDS011;28491;46.898;7.660;2023-07-20T00:01:43;8.05;;;3.47;;
42840;SDS011;28491;46.898;7.660;2023-07-20T00:04:10;9.00;;;4.00;;
42840;SDS011;28491;46.898;7.660;2023-07-20T00:06:36;6.28;;;3.05;;
42840;SDS011;28491;46.898;7.660;2023-07-20T00:09:05;7.28;;;3.83;;
42840;SDS011;28491;46.898;7.660;2023-07-20T00:11:31;4.55;;;3.25;;
42840;SDS011;28491;46.898;7.660;2023-07-20T00:16:25;4.43;;;2.63;;
42840;SDS011;28491;46.898;7.660;2023-07-20T00:18:51;5.88;;;3.00;;
42840;SDS011;28491;46.898;7.660;2023-07-20T00:21:17;6.63;;;3.55;;
42840;SDS011;28491;46.898;7.660;2023-07-20T00:23:42;5.03;;;3.22;;
42840;SDS011;28491;46.898;7.660;2023-07-20T00:26:08;5.10;;;3.97;;
42840;SDS011;28491;46.898;7.660;2023-07-20T00:28:33;5.75;;;3.28;;
42840;SDS011;28491;46.898;7.660;2023-07-20T00:30:59;4.35;;;3.10;;
42840;SDS011;28491;46.898;7.660;2023-07-20T00:33:25;5.22;;;3.47;;
42840;SDS011;28491;46.898;7.660;2023-07-20T00:35:51;4.68;;;3.08;;
42840;SDS011;28491;46.898;7.660;2023-07-20T00:38:16;4.05;;;2.80;;
42840;SDS011;28491;46.898;7.660;2023-07-20T00:40:42;5.55;;;2.97;;
42840;SDS011;28491;46.898;7.660;2023-07-20T00:43:07;5.40;;;3.13;;
42840;SDS011;28491;46.898;7.660;2023-07-20T00:45:34;8.43;;;3.95;;
42840;SDS011;28491;46.898;7.660;2023-07-20T00:48:01;7.47;;;3.42;;
42840;SDS011;28491;46.898;7.660;2023-07-20T00:50:28;6.50;;;3.58;;
42840;SDS011;28491;46.898;7.660;2023-07-20T00:52:54;6.75;;;4.68;;
42840;SDS011;28491;46.898;7.660;2023-07-20T00:55:21;6.72;;;3.28;;
42840;SDS011;28491;46.898;7.660;2023-07-20T00:57:48;5.50;;;3.45;;
42840;SDS011;28491;46.898;7.660;2023-07-20T01:00:15;5.65;;;3.10;;
42840;SDS011;28491;46.898;7.660;2023-07-20T01:02:41;6.82;;;4.22;;
42840;SDS011;28491;46.898;7.660;2023-07-20T01:05:06;5.05;;;3.10;;
42840;SDS011;28491;46.898;7.660;2023-07-20T01:07:41;6.50;;;4.22;;
42840;SDS011;28491;46.898;7.660;2023-07-20T01:10:20;7.28;;;3.50;;
42840;SDS011;28491;46.898;7.660;2023-07-20T01:12:58;6.18;;;2.92;;
42840;SDS011;28491;46.898;7.660;2023-07-20T01:15:26;4.20;;;3.03;;
42840;SDS011;28491;46.898;7.660;2023-07-20T01:17:52;5.55;;;3.45;;
42840;SDS011;28491;46.898;7.660;2023-07-20T01:20:19;8.80;;;3.35;;
42840;SDS011;28491;46.898;7.660;2023-07-20T01:25:50;6.97;;;3.20;;
42840;SDS011;28491;46.898;7.660;2023-07-20T01:31:27;5.07;;;2.72;;
42840;SDS011;28491;46.898;7.660;2023-07-20T01:33:55;4.53;;;2.80;;
42840;SDS011;28491;46.898;7.660;2023-07-20T01:36:23;9.50;;;2.88;;
42840;SDS011;28491;46.898;7.660;2023-07-20T01:38:51;6.10;;;3.10;;
42840;SDS011;28491;46.898;7.660;2023-07-20T01:41:17;3.90;;;2.50;;
42840;SDS011;28491;46.898;7.660;2023-07-20T01:43:43;6.75;;;2.92;;
42840;SDS011;28491;46.898;7.660;2023-07-20T01:46:09;4.45;;;2.70;;
42840;SDS011;28491;46.898;7.660;2023-07-20T01:48:34;6.13;;;3.13;;
42840;SDS011;28491;46.898;7.660;2023-07-20T01:51:00;4.80;;;2.95;;
42840;SDS011;28491;46.898;7.660;2023-07-20T01:53:26;4.55;;;2.35;;
42840;SDS011;28491;46.898;7.660;2023-07-20T01:55:54;9.63;;;2.35;;
42840;SDS011;28491;46.898;7.660;2023-07-20T01:58:21;8.15;;;2.70;;
42840;SDS011;28491;46.898;7.660;2023-07-20T02:00:47;6.57;;;3.25;;
42840;SDS011;28491;46.898;7.660;2023-07-20T02:03:12;6.35;;;2.75;;
42840;SDS011;28491;46.898;7.660;2023-07-20T02:05:38;9.52;;;2.25;;
42840;SDS011;28491;46.898;7.660;2023-07-20T02:08:04;2.70;;;1.70;;
42840;SDS011;28491;46.898;7.660;2023-07-20T02:10:29;3.28;;;2.00;;
42840;SDS011;28491;46.898;7.660;2023-07-20T02:12:55;2.97;;;1.83;;
42840;SDS011;28491;46.898;7.660;2023-07-20T02:15:21;3.00;;;1.80;;
42840;SDS011;28491;46.898;7.660;2023-07-20T02:17:47;4.10;;;2.20;;
42840;SDS011;28491;46.898;7.660;2023-07-20T02:20:12;8.48;;;2.42;;
42840;SDS011;28491;46.898;7.660;2023-07-20T02:22:38;10.00;;;2.58;;
42840;SDS011;28491;46.898;7.660;2023-07-20T02:25:04;3.53;;;2.00;;
42840;SDS011;28491;46.898;7.660;2023-07-20T02:27:32;4.57;;;2.83;;
42840;SDS011;28491;46.898;7.660;2023-07-20T02:29:58;7.15;;;2.40;;
42840;SDS011;28491;46.898;7.660;2023-07-20T02:32:23;3.60;;;2.30;;
42840;SDS011;28491;46.898;7.660;2023-07-20T02:34:49;5.25;;;1.85;;
42840;SDS011;28491;46.898;7.660;2023-07-20T02:37:16;6.82;;;2.05;;
42840;SDS011;28491;46.898;7.660;2023-07-20T02:39:41;5.63;;;2.28;;
42840;SDS011;28491;46.898;7.660;2023-07-20T02:42:07;4.78;;;2.42;;
42840;SDS011;28491;46.898;7.660;2023-07-20T02:44:33;2.90;;;2.13;;
42840;SDS011;28491;46.898;7.660;2023-07-20T02:46:58;4.82;;;2.20;;
42840;SDS011;28491;46.898;7.660;2023-07-20T02:49:24;4.53;;;1.70;;
42840;SDS011;28491;46.898;7.660;2023-07-20T02:51:50;3.33;;;1.63;;
42840;SDS011;28491;46.898;7.660;2023-07-20T02:54:15;3.95;;;2.10;;
42840;SDS011;28491;46.898;7.660;2023-07-20T02:56:41;2.72;;;1.45;;
42840;SDS011;28491;46.898;7.660;2023-07-20T02:59:06;4.28;;;1.92;;
42840;SDS011;28491;46.898;7.660;2023-07-20T03:01:32;5.22;;;2.40;;
42840;SDS011;28491;46.898;7.660;2023-07-20T03:03:58;4.88;;;2.10;;
42840;SDS011;28491;46.898;7.660;2023-07-20T03:06:24;4.03;;;1.60;;
42840;SDS011;28491;46.898;7.660;2023-07-20T03:08:49;4.68;;;1.98;;
42840;SDS011;28491;46.898;7.660;2023-07-20T03:11:17;4.95;;;2.50;;
42840;SDS011;28491;46.898;7.660;2023-07-20T03:13:43;4.28;;;1.63;;
42840;SDS011;28491;46.898;7.660;2023-07-20T03:16:10;2.97;;;1.83;;
42840;SDS011;28491;46.898;7.660;2023-07-20T03:18:37;5.00;;;1.70;;
42840;SDS011;28491;46.898;7.660;2023-07-20T03:21:03;2.45;;;1.60;;
42840;SDS011;28491;46.898;7.660;2023-07-20T03:23:29;4.10;;;1.70;;
42840;SDS011;28491;46.898;7.660;2023-07-20T03:25:55;5.38;;;2.10;;
42840;SDS011;28491;46.898;7.660;2023-07-20T03:28:21;4.13;;;2.00;;
42840;SDS011;28491;46.898;7.660;2023-07-20T03:30:46;2.83;;;1.70;;
42840;SDS011;28491;46.898;7.660;2023-07-20T03:33:19;6.75;;;2.15;;
42840;SDS011;28491;46.898;7.660;2023-07-20T03:35:45;4.32;;;1.70;;
42840;SDS011;28491;46.898;7.660;2023-07-20T03:38:11;4.50;;;1.67;;
42840;SDS011;28491;46.898;7.660;2023-07-20T03:40:36;4.60;;;2.03;;
42840;SDS011;28491;46.898;7.660;2023-07-20T03:43:02;4.13;;;2.40;;
42840;SDS011;28491;46.898;7.660;2023-07-20T03:45:28;5.40;;;2.20;;
42840;SDS011;28491;46.898;7.660;2023-07-20T03:47:53;5.50;;;2.00;;
42840;SDS011;28491;46.898;7.660;2023-07-20T03:50:19;4.63;;;1.63;;
42840;SDS011;28491;46.898;7.660;2023-07-20T03:52:44;4.88;;;1.90;;
42840;SDS011;28491;46.898;7.660;2023-07-20T03:55:10;4.43;;;1.70;;
42840;SDS011;28491;46.898;7.660;2023-07-20T03:57:36;10.57;;;2.03;;
42840;SDS011;28491;46.898;7.660;2023-07-20T04:00:01;3.55;;;1.80;;
42840;SDS011;28491;46.898;7.660;2023-07-20T04:02:31;2.80;;;1.67;;
42840;SDS011;28491;46.898;7.660;2023-07-20T04:04:57;4.20;;;2.50;;
42840;SDS011;28491;46.898;7.660;2023-07-20T04:07:23;2.78;;;1.60;;
42840;SDS011;28491;46.898;7.660;2023-07-20T04:09:48;5.57;;;1.85;;
42840;SDS011;28491;46.898;7.660;2023-07-20T04:12:14;2.60;;;2.08;;
42840;SDS011;28491;46.898;7.660;2023-07-20T04:14:39;3.33;;;1.90;;
42840;SDS011;28491;46.898;7.660;2023-07-20T04:17:05;5.55;;;2.05;;
42840;SDS011;28491;46.898;7.660;2023-07-20T04:19:30;9.98;;;3.42;;
42840;SDS011;28491;46.898;7.660;2023-07-20T04:21:56;4.38;;;1.83;;
42840;SDS011;28491;46.898;7.660;2023-07-20T04:24:22;6.32;;;2.35;;
42840;SDS011;28491;46.898;7.660;2023-07-20T04:26:47;2.92;;;1.73;;
42840;SDS011;28491;46.898;7.660;2023-07-20T04:29:13;3.42;;;2.00;;
42840;SDS011;28491;46.898;7.660;2023-07-20T04:31:38;3.28;;;1.83;;
42840;SDS011;28491;46.898;7.660;2023-07-20T04:34:04;5.88;;;2.13;;
42840;SDS011;28491;46.898;7.660;2023-07-20T04:36:29;3.20;;;2.00;;
42840;SDS011;28491;46.898;7.660;2023-07-20T04:38:55;6.20;;;1.88;;
42840;SDS011;28491;46.898;7.660;2023-07-20T04:41:21;2.67;;;1.63;;
42840;SDS011;28491;46.898;7.660;2023-07-20T04:43:46;3.67;;;1.83;;
42840;SDS011;28491;46.898;7.660;2023-07-20T04:46:12;4.80;;;1.65;;
42840;SDS011;28491;46.898;7.660;2023-07-20T04:48:38;3.47;;;1.80;;
42840;SDS011;28491;46.898;7.660;2023-07-20T04:54:41;2.97;;;2.00;;
42840;SDS011;28491;46.898;7.660;2023-07-20T04:57:09;4.00;;;2.08;;
42840;SDS011;28491;46.898;7.660;2023-07-20T04:59:36;3.80;;;2.00;;
42840;SDS011;28491;46.898;7.660;2023-07-20T05:02:01;5.05;;;2.20;;
42840;SDS011;28491;46.898;7.660;2023-07-20T05:04:27;4.28;;;1.80;;
42840;SDS011;28491;46.898;7.660;2023-07-20T05:06:53;4.78;;;2.20;;
42840;SDS011;28491;46.898;7.660;2023-07-20T05:09:18;2.70;;;1.77;;
42840;SDS011;28491;46.898;7.660;2023-07-20T05:11:44;3.30;;;1.65;;
42840;SDS011;28491;46.898;7.660;2023-07-20T05:14:12;3.57;;;2.00;;
42840;SDS011;28491;46.898;7.660;2023-07-20T05:16:37;4.32;;;2.00;;
42840;SDS011;28491;46.898;7.660;2023-07-20T05:19:04;3.85;;;1.90;;
42840;SDS011;28491;46.898;7.660;2023-07-20T05:21:34;4.10;;;1.70;;
42840;SDS011;28491;46.898;7.660;2023-07-20T05:23:59;3.33;;;2.15;;
42840;SDS011;28491;46.898;7.660;2023-07-20T05:26:25;7.38;;;2.20;;
42840;SDS011;28491;46.898;7.660;2023-07-20T05:28:50;4.18;;;2.55;;
42840;SDS011;28491;46.898;7.660;2023-07-20T05:31:34;4.15;;;2.40;;
42840;SDS011;28491;46.898;7.660;2023-07-20T05:34:22;12.48;;;2.50;;
42840;SDS011;28491;46.898;7.660;2023-07-20T05:39:56;4.15;;;2.00;;
42840;SDS011;28491;46.898;7.660;2023-07-20T05:42:22;4.90;;;2.58;;
42840;SDS011;28491;46.898;7.660;2023-07-20T05:44:48;4.13;;;2.20;;
42840;SDS011;28491;46.898;7.660;2023-07-20T05:47:30;7.18;;;2.20;;
42840;SDS011;28491;46.898;7.660;2023-07-20T05:49:57;3.90;;;2.00;;
42840;SDS011;28491;46.898;7.660;2023-07-20T05:55:24;4.68;;;2.28;;
42840;SDS011;28491;46.898;7.660;2023-07-20T05:57:50;5.63;;;2.67;;
42840;SDS011;28491;46.898;7.660;2023-07-20T06:00:16;5.72;;;2.08;;
42840;SDS011;28491;46.898;7.660;2023-07-20T06:02:44;7.85;;;2.35;;
42840;SDS011;28491;46.898;7.660;2023-07-20T06:05:09;3.38;;;1.83;;
42840;SDS011;28491;46.898;7.660;2023-07-20T06:10:25;3.10;;;2.15;;
42840;SDS011;28491;46.898;7.660;2023-07-20T06:12:54;3.50;;;2.00;;
42840;SDS011;28491;46.898;7.660;2023-07-20T06:15:28;3.33;;;2.03;;
42840;SDS011;28491;46.898;7.660;2023-07-20T06:17:56;2.83;;;1.55;;
42840;SDS011;28491;46.898;7.660;2023-07-20T06:20:26;2.65;;;1.77;;
42840;SDS011;28491;46.898;7.660;2023-07-20T06:23:00;4.22;;;2.45;;
42840;SDS011;28491;46.898;7.660;2023-07-20T06:25:28;4.30;;;2.15;;
42840;SDS011;28491;46.898;7.660;2023-07-20T06:28:31;2.50;;;1.50;;
42840;SDS011;28491;46.898;7.660;2023-07-20T06:31:00;3.60;;;2.15;;
42840;SDS011;28491;46.898;7.660;2023-07-20T06:33:26;3.15;;;1.67;;
42840;SDS011;28491;46.898;7.660;2023-07-20T06:35:52;3.40;;;2.17;;
42840;SDS011;28491;46.898;7.660;2023-07-20T06:38:27;3.80;;;1.77;;
42840;SDS011;28491;46.898;7.660;2023-07-20T06:40:53;7.88;;;1.80;;
42840;SDS011;28491;46.898;7.660;2023-07-20T06:43:28;3.88;;;2.30;;
42840;SDS011;28491;46.898;7.660;2023-07-20T06:46:01;3.53;;;1.75;;
42840;SDS011;28491;46.898;7.660;2023-07-20T06:48:35;2.45;;;1.48;;
42840;SDS011;28491;46.898;7.660;2023-07-20T06:51:24;3.20;;;1.67;;
42840;SDS011;28491;46.898;7.660;2023-07-20T06:53:57;2.88;;;1.85;;
42840;SDS011;28491;46.898;7.660;2023-07-20T06:56:32;4.03;;;2.03;;
42840;SDS011;28491;46.898;7.660;2023-07-20T06:58:57;5.28;;;2.00;;
42840;SDS011;28491;46.898;7.660;2023-07-20T07:01:23;4.47;;;1.65;;
42840;SDS011;28491;46.898;7.660;2023-07-20T07:03:48;4.68;;;1.90;;
42840;SDS011;28491;46.898;7.660;2023-07-20T07:06:36;2.38;;;1.60;;
42840;SDS011;28491;46.898;7.660;2023-07-20T07:12:56;3.42;;;1.70;;
42840;SDS011;28491;46.898;7.660;2023-07-20T07:15:29;4.25;;;1.80;;
42840;SDS011;28491;46.898;7.660;2023-07-20T07:17:55;2.38;;;1.40;;
42840;SDS011;28491;46.898;7.660;2023-07-20T07:23:30;1.90;;;1.10;;
42840;SDS011;28491;46.898;7.660;2023-07-20T07:25:56;5.13;;;1.90;;
42840;SDS011;28491;46.898;7.660;2023-07-20T07:28:21;3.20;;;1.55;;
42840;SDS011;28491;46.898;7.660;2023-07-20T07:30:59;1.83;;;1.38;;
42840;SDS011;28491;46.898;7.660;2023-07-20T07:33:31;3.55;;;1.60;;
42840;SDS011;28491;46.898;7.660;2023-07-20T07:35:57;2.42;;;1.10;;
42840;SDS011;28491;46.898;7.660;2023-07-20T07:38:23;3.08;;;1.52;;
42840;SDS011;28491;46.898;7.660;2023-07-20T07:40:49;2.50;;;1.40;;
42840;SDS011;28491;46.898;7.660;2023-07-20T07:43:28;3.58;;;1.48;;
42840;SDS011;28491;46.898;7.660;2023-07-20T07:46:07;3.75;;;1.33;;
42840;SDS011;28491;46.898;7.660;2023-07-20T07:48:32;2.95;;;1.65;;
42840;SDS011;28491;46.898;7.660;2023-07-20T07:50:58;3.58;;;1.55;;
42840;SDS011;28491;46.898;7.660;2023-07-20T07:53:24;7.53;;;1.90;;
42840;SDS011;28491;46.898;7.660;2023-07-20T07:55:51;2.70;;;1.50;;
42840;SDS011;28491;46.898;7.660;2023-07-20T07:58:17;4.30;;;1.50;;
42840;SDS011;28491;46.898;7.660;2023-07-20T08:00:50;2.85;;;1.17;;
42840;SDS011;28491;46.898;7.660;2023-07-20T08:03:34;3.47;;;1.80;;
42840;SDS011;28491;46.898;7.660;2023-07-20T08:06:01;4.75;;;1.80;;
42840;SDS011;28491;46.898;7.660;2023-07-20T08:08:32;3.40;;;1.90;;
42840;SDS011;28491;46.898;7.660;2023-07-20T08:10:58;2.38;;;1.30;;
42840;SDS011;28491;46.898;7.660;2023-07-20T08:13:24;3.38;;;2.15;;
42840;SDS011;28491;46.898;7.660;2023-07-20T08:15:51;2.50;;;1.38;;
42840;SDS011;28491;46.898;7.660;2023-07-20T08:18:17;2.47;;;1.80;;
42840;SDS011;28491;46.898;7.660;2023-07-20T08:21:03;2.55;;;1.60;;
42840;SDS011;28491;46.898;7.660;2023-07-20T08:23:34;3.08;;;1.52;;
42840;SDS011;28491;46.898;7.660;2023-07-20T08:25:59;2.80;;;1.77;;
42840;SDS011;28491;46.898;7.660;2023-07-20T08:28:26;3.22;;;1.52;;
42840;SDS011;28491;46.898;7.660;2023-07-20T08:30:52;2.72;;;1.52;;
42840;SDS011;28491;46.898;7.660;2023-07-20T08:33:20;4.00;;;1.67;;
42840;SDS011;28491;46.898;7.660;2023-07-20T08:35:54;2.78;;;1.55;;
42840;SDS011;28491;46.898;7.660;2023-07-20T08:38:22;4.65;;;1.73;;
42840;SDS011;28491;46.898;7.660;2023-07-20T08:41:01;3.88;;;2.30;;
42840;SDS011;28491;46.898;7.660;2023-07-20T08:43:27;3.85;;;1.90;;
42840;SDS011;28491;46.898;7.660;2023-07-20T08:45:54;2.15;;;1.35;;
42840;SDS011;28491;46.898;7.660;2023-07-20T08:48:23;3.85;;;1.67;;
42840;SDS011;28491;46.898;7.660;2023-07-20T08:50:50;3.88;;;1.85;;
42840;SDS011;28491;46.898;7.660;2023-07-20T08:53:18;3.85;;;1.73;;
42840;SDS011;28491;46.898;7.660;2023-07-20T08:59:03;3.38;;;1.50;;
42840;SDS011;28491;46.898;7.660;2023-07-20T09:01:35;4.55;;;1.77;;
42840;SDS011;28491;46.898;7.660;2023-07-20T09:04:03;3.05;;;1.58;;
42840;SDS011;28491;46.898;7.660;2023-07-20T09:06:31;5.72;;;2.42;;
42840;SDS011;28491;46.898;7.660;2023-07-20T09:09:06;3.03;;;1.73;;
42840;SDS011;28491;46.898;7.660;2023-07-20T09:11:32;3.63;;;1.98;;
42840;SDS011;28491;46.898;7.660;2023-07-20T09:14:07;2.80;;;1.38;;
42840;SDS011;28491;46.898;7.660;2023-07-20T10:02:08;2.78;;;1.50;;
42840;SDS011;28491;46.898;7.660;2023-07-20T10:08:07;3.55;;;1.60;;
42840;SDS011;28491;46.898;7.660;2023-07-20T10:18:03;3.65;;;2.10;;
42840;SDS011;28491;46.898;7.660;2023-07-20T10:20:38;2.58;;;1.90;;
42840;SDS011;28491;46.898;7.660;2023-07-20T11:46:20;3.88;;;2.03;;
42840;SDS011;28491;46.898;7.660;2023-07-20T11:56:16;5.80;;;2.00;;
42840;SDS011;28491;46.898;7.660;2023-07-20T12:02:38;4.57;;;2.40;;
42840;SDS011;28491;46.898;7.660;2023-07-20T12:51:34;3.75;;;2.70;;
42840;SDS011;28491;46.898;7.660;2023-07-20T12:54:06;2.40;;;1.58;;
42840;SDS011;28491;46.898;7.660;2023-07-20T12:56:49;3.28;;;1.90;;
42840;SDS011;28491;46.898;7.660;2023-07-20T13:06:16;2.72;;;1.77;;
42840;SDS011;28491;46.898;7.660;2023-07-20T13:12:14;4.78;;;1.80;;
42840;SDS011;28491;46.898;7.660;2023-07-20T13:14:58;2.95;;;1.55;;
42840;SDS011;28491;46.898;7.660;2023-07-20T13:18:19;3.28;;;2.05;;
42840;SDS011;28491;46.898;7.660;2023-07-20T13:21:02;2.53;;;1.52;;
42840;SDS011;28491;46.898;7.660;2023-07-20T13:23:37;2.58;;;1.63;;
42840;SDS011;28491;46.898;7.660;2023-07-20T13:26:12;4.07;;;1.70;;
42840;SDS011;28491;46.898;7.660;2023-07-20T13:29:06;3.22;;;2.00;;
42840;SDS011;28491;46.898;7.660;2023-07-20T13:31:41;2.60;;;1.50;;
42840;SDS011;28491;46.898;7.660;2023-07-20T13:34:47;2.80;;;1.83;;
42840;SDS011;28491;46.898;7.660;2023-07-20T13:39:52;2.78;;;1.52;;
42840;SDS011;28491;46.898;7.660;2023-07-20T13:42:51;4.28;;;1.67;;
42840;SDS011;28491;46.898;7.660;2023-07-20T13:46:14;2.75;;;1.42;;
42840;SDS011;28491;46.898;7.660;2023-07-20T13:48:57;2.92;;;1.48;;
42840;SDS011;28491;46.898;7.660;2023-07-20T13:55:22;3.45;;;1.77;;
42840;SDS011;28491;46.898;7.660;2023-07-20T13:58:22;4.22;;;1.83;;
42840;SDS011;28491;46.898;7.660;2023-07-20T14:00:55;3.75;;;1.63;;
42840;SDS011;28491;46.898;7.660;2023-07-20T14:04:06;3.75;;;1.58;;
42840;SDS011;28491;46.898;7.660;2023-07-20T14:07:09;3.38;;;1.52;;
42840;SDS011;28491;46.898;7.660;2023-07-20T14:10:23;3.40;;;1.70;;
42840;SDS011;28491;46.898;7.660;2023-07-20T14:12:57;2.67;;;1.45;;
42840;SDS011;28491;46.898;7.660;2023-07-20T14:15:22;2.65;;;1.63;;
42840;SDS011;28491;46.898;7.660;2023-07-20T14:17:48;4.22;;;1.55;;
42840;SDS011;28491;46.898;7.660;2023-07-20T14:20:13;3.00;;;1.98;;
42840;SDS011;28491;46.898;7.660;2023-07-20T14:22:39;2.47;;;1.42;;
42840;SDS011;28491;46.898;7.660;2023-07-20T14:25:06;4.15;;;1.92;;
42840;SDS011;28491;46.898;7.660;2023-07-20T14:27:32;3.42;;;2.03;;
42840;SDS011;28491;46.898;7.660;2023-07-20T14:29:58;3.13;;;1.83;;
42840;SDS011;28491;46.898;7.660;2023-07-20T14:32:24;4.22;;;2.08;;
42840;SDS011;28491;46.898;7.660;2023-07-20T14:34:52;5.82;;;1.67;;
42840;SDS011;28491;46.898;7.660;2023-07-20T14:37:28;3.22;;;1.70;;
42840;SDS011;28491;46.898;7.660;2023-07-20T14:39:56;3.20;;;1.75;;
42840;SDS011;28491;46.898;7.660;2023-07-20T15:02:14;2.63;;;1.70;;
42840;SDS011;28491;46.898;7.660;2023-07-20T15:11:18;2.75;;;1.33;;
42840;SDS011;28491;46.898;7.660;2023-07-20T15:21:35;2.55;;;1.40;;
42840;SDS011;28491;46.898;7.660;2023-07-20T15:27:43;2.17;;;1.33;;
42840;SDS011;28491;46.898;7.660;2023-07-20T15:30:27;2.88;;;1.67;;
42840;SDS011;28491;46.898;7.660;2023-07-20T15:41:00;4.07;;;1.60;;
42840;SDS011;28491;46.898;7.660;2023-07-20T15:43:29;2.92;;;1.65;;
42840;SDS011;28491;46.898;7.660;2023-07-20T16:01:29;2.92;;;1.75;;
42840;SDS011;28491;46.898;7.660;2023-07-20T16:06:59;5.03;;;2.10;;
42840;SDS011;28491;46.898;7.660;2023-07-20T16:09:59;3.35;;;1.88;;
42840;SDS011;28491;46.898;7.660;2023-07-20T16:12:28;5.30;;;2.08;;
42840;SDS011;28491;46.898;7.660;2023-07-20T16:38:07;3.95;;;1.45;;
42840;SDS011;28491;46.898;7.660;2023-07-20T16:40:35;3.45;;;1.30;;
42840;SDS011;28491;46.898;7.660;2023-07-20T16:43:18;1.52;;;1.08;;
42840;SDS011;28491;46.898;7.660;2023-07-20T16:46:00;4.72;;;1.30;;
42840;SDS011;28491;46.898;7.660;2023-07-20T16:52:40;3.10;;;1.85;;
42840;SDS011;28491;46.898;7.660;2023-07-20T16:55:34;3.85;;;1.40;;
42840;SDS011;28491;46.898;7.660;2023-07-20T16:58:31;2.95;;;1.58;;
42840;SDS011;28491;46.898;7.660;2023-07-20T17:01:32;1.77;;;1.20;;
42840;SDS011;28491;46.898;7.660;2023-07-20T17:03:58;9.07;;;2.38;;
42840;SDS011;28491;46.898;7.660;2023-07-20T17:06:44;3.45;;;1.98;;
42840;SDS011;28491;46.898;7.660;2023-07-20T17:09:20;5.50;;;2.22;;
42840;SDS011;28491;46.898;7.660;2023-07-20T17:12:18;3.60;;;1.50;;
42840;SDS011;28491;46.898;7.660;2023-07-20T17:15:09;6.60;;;1.50;;
42840;SDS011;28491;46.898;7.660;2023-07-20T17:17:42;3.72;;;1.65;;
42840;SDS011;28491;46.898;7.660;2023-07-20T17:20:10;4.85;;;1.90;;
42840;SDS011;28491;46.898;7.660;2023-07-20T17:22:36;5.95;;;2.22;;
42840;SDS011;28491;46.898;7.660;2023-07-20T17:25:08;3.53;;;1.95;;
42840;SDS011;28491;46.898;7.660;2023-07-20T17:27:57;2.97;;;1.88;;
42840;SDS011;28491;46.898;7.660;2023-07-20T17:30:24;4.60;;;2.97;;
42840;SDS011;28491;46.898;7.660;2023-07-20T17:32:53;3.70;;;1.85;;
42840;SDS011;28491;46.898;7.660;2023-07-20T17:35:19;5.97;;;1.70;;
42840;SDS011;28491;46.898;7.660;2023-07-20T17:37:48;2.97;;;1.58;;
42840;SDS011;28491;46.898;7.660;2023-07-20T17:40:14;5.10;;;1.70;;
42840;SDS011;28491;46.898;7.660;2023-07-20T17:42:47;4.78;;;2.33;;
42840;SDS011;28491;46.898;7.660;2023-07-20T17:45:33;3.58;;;1.95;;
42840;SDS011;28491;46.898;7.660;2023-07-20T17:48:01;3.03;;;1.58;;
42840;SDS011;28491;46.898;7.660;2023-07-20T17:50:27;3.63;;;1.85;;
42840;SDS011;28491;46.898;7.660;2023-07-20T17:52:53;4.18;;;2.03;;
42840;SDS011;28491;46.898;7.660;2023-07-20T17:55:21;4.83;;;1.80;;
42840;SDS011;28491;46.898;7.660;2023-07-20T17:57:56;4.95;;;2.28;;
42840;SDS011;28491;46.898;7.660;2023-07-20T23:09:39;3.90;;;2.30;;
42840;SDS011;28491;46.898;7.660;2023-07-20T23:12:16;3.10;;;2.20;;
42840;SDS011;28491;46.898;7.660;2023-07-20T23:14:49;3.53;;;2.30;;
42840;SDS011;28491;46.898;7.660;2023-07-20T23:17:15;4.53;;;2.53;;
42840;SDS011;28491;46.898;7.660;2023-07-20T23:19:41;5.13;;;2.42;;
42840;SDS011;28491;46.898;7.660;2023-07-20T23:22:10;3.28;;;2.13;;
42840;SDS011;28491;46.898;7.660;2023-07-20T23:24:39;3.83;;;2.20;;
42840;SDS011;28491;46.898;7.660;2023-07-20T23:27:08;6.82;;;2.40;;
42840;SDS011;28491;46.898;7.660;2023-07-20T23:29:48;13.10;;;3.25;;
42840;SDS011;28491;46.898;7.660;2023-07-20T23:32:25;4.55;;;2.08;;
42840;SDS011;28491;46.898;7.660;2023-07-20T23:35:00;5.68;;;2.65;;
42840;SDS011;28491;46.898;7.660;2023-07-20T23:37:39;3.72;;;2.35;;
42840;SDS011;28491;46.898;7.660;2023-07-20T23:40:13;3.70;;;2.22;;
42840;SDS011;28491;46.898;7.660;2023-07-20T23:42:45;4.68;;;2.15;;
42840;SDS011;28491;46.898;7.660;2023-07-20T23:45:18;3.33;;;2.08;;
42840;SDS011;28491;46.898;7.660;2023-07-20T23:47:49;3.15;;;2.10;;
42840;SDS011;28491;46.898;7.660;2023-07-20T23:50:14;4.38;;;2.10;;
42840;SDS011;28491;46.898;7.660;2023-07-20T23:52:43;3.17;;;2.33;;
42840;SDS011;28491;46.898;7.660;2023-07-20T23:55:18;4.55;;;2.53;;
42840;SDS011;28491;46.898;7.660;2023-07-20T23:57:50;7.07;;;2.35;;
